Friday, December 14, 2018, 6:59 PM EST
Back to Local

KHIE, Mt Washington Regional Airport

Location: Jefferson, NH, United States Lat: 44.367
Local Time: 6:59 PM EST (23:59 GMT) Lon: -71.55
Time Zone: US/Eastern Elev: 1072 ft

Show me the last for .
Show Decoded

2018-12-14 17:52 METAR KHIE 142252Z AUTO 00000KT 10SM OVC030 00/M03 A3024 RMK AO2 SLP258
                 T00001028 =
2018-12-14 16:52 METAR KHIE 142152Z AUTO 00000KT 10SM OVC027 01/M03 A3025 RMK AO2 SLP262
                 T00061033 =
2018-12-14 15:52 METAR KHIE 142052Z AUTO 00000KT 10SM OVC027 01/M03 A3028 RMK AO2 SLP269
                 T00061028 56014 =
2018-12-14 14:52 METAR KHIE 141952Z AUTO 00000KT 10SM OVC027 01/M04 A3028 RMK AO2 SLP271
                 T00061044 =
2018-12-14 13:52 METAR KHIE 141852Z AUTO 00000KT 10SM OVC028 00/M04 A3029 RMK AO2 SLP274
                 T00001044 =
2018-12-14 13:11 METAR KHIE 141811Z AUTO 00000KT 10SM OVC029 00/M05 A3030 RMK AO2 T00001050 =
2018-12-14 12:52 METAR KHIE 141752Z AUTO 00000KT 10SM OVC031 M01/M05 A3032 RMK AO2 SLP283
                 T10111050 11011 21056 56035 =
2018-12-14 12:00 METAR KHIE 141700Z AUTO 09003KT 10SM OVC031 M02/M06 A3035 RMK AO2 PRESFR
                 T10171061 =
2018-12-14 11:52 METAR KHIE 141652Z AUTO 00000KT 10SM BKN028 OVC034 M02/M06 A3036 RMK AO2 SLP298
                 T10171061 =
2018-12-14 11:26 METAR KHIE 141626Z AUTO 00000KT 10SM OVC029 M02/M06 A3038 RMK AO2 T10221061 =
2018-12-14 10:52 METAR KHIE 141552Z AUTO 00000KT 10SM OVC033 M02/M07 A3038 RMK AO2 SLP307
                 T10221067 =
2018-12-14 09:52 METAR KHIE 141452Z AUTO 00000KT 10SM OVC032 M03/M08 A3042 RMK AO2 SLP321
                 T10331078 55000 =
2018-12-14 09:18 METAR KHIE 141418Z AUTO 00000KT 10SM OVC030 M04/M08 A3043 RMK AO2 T10391083 =
2018-12-14 09:07 METAR KHIE 141407Z AUTO 00000KT 10SM OVC029 M04/M08 A3043 RMK AO2 T10391083 =
2018-12-14 08:52 METAR KHIE 141352Z AUTO 00000KT 10SM OVC030 M04/M08 A3043 RMK AO2 SLP323
                 T10441083 =
2018-12-14 07:52 METAR KHIE 141252Z AUTO 00000KT 10SM OVC032 M05/M09 A3042 RMK AO2 SLP319
                 T10501094 =
2018-12-14 07:04 METAR KHIE 141204Z AUTO 00000KT 10SM OVC030 M05/M09 A3042 RMK AO2 T10501094 =
2018-12-14 06:52 METAR KHIE 141152Z AUTO 00000KT 10SM OVC029 M06/M09 A3042 RMK AO2 SLP323
                 T10561094 11050 21078 58001 =
2018-12-14 06:10 METAR KHIE 141110Z AUTO 00000KT 10SM OVC029 M06/M10 A3042 RMK AO2 T10561100 =
2018-12-14 05:52 METAR KHIE 141052Z AUTO 00000KT 10SM OVC030 M06/M10 A3043 RMK AO2 SLP325
                 T10561100 =
2018-12-14 05:42 METAR KHIE 141042Z AUTO 00000KT 10SM OVC029 M06/M10 A3043 RMK AO2 T10561100 =
2018-12-14 05:06 METAR KHIE 141006Z AUTO 00000KT 10SM OVC030 M06/M11 A3044 RMK AO2 T10561106 =
2018-12-14 04:52 METAR KHIE 140952Z AUTO 17003KT 10SM OVC029 M06/M11 A3044 RMK AO2 SLP327
                 T10611106 =
2018-12-14 03:52 METAR KHIE 140852Z AUTO 00000KT 10SM OVC020 M07/M11 A3043 RMK AO2 SLP323
                 T10671106 58009 =
2018-12-14 02:52 METAR KHIE 140752Z AUTO 00000KT 10SM BKN022 M08/M12 A3045 RMK AO2 SLP332
                 T10781117 =
2018-12-14 02:34 METAR KHIE 140734Z AUTO 00000KT 10SM SCT021 SCT042 M08/M12 A3045 RMK AO2
                 T10781122 =
2018-12-14 01:52 METAR KHIE 140652Z AUTO 00000KT 10SM OVC020 M05/M12 A3045 RMK AO2 SLP332
                 T10501117 =
2018-12-14 00:52 METAR KHIE 140552Z AUTO 00000KT 10SM OVC019 M05/M12 A3047 RMK AO2 SLP339
                 T10501117 11050 21061 55001 =
2018-12-13 23:52 METAR KHIE 140452Z AUTO 00000KT 10SM OVC020 M05/M13 A3047 RMK AO2 SLP339
                 T10501128 410501250 =
2018-12-13 22:52 METAR KHIE 140352Z AUTO 00000KT 10SM OVC020 M05/M12 A3048 RMK AO2 SLP345
                 T10501122 =
2018-12-13 21:52 METAR KHIE 140252Z AUTO 00000KT 10SM OVC021 M05/M12 A3047 RMK AO2 SLP346
                 T10501122 50003 =
2018-12-13 20:52 METAR KHIE 140152Z AUTO 00000KT 10SM OVC024 M06/M13 A3048 RMK AO2 SLP349
                 T10561128 =
2018-12-13 19:52 METAR KHIE 140052Z AUTO 00000KT 10SM OVC025 M06/M13 A3047 RMK AO2 SLP348
                 T10561133 =

Support USWX by starting your Amazon purchase here.